createdAt,value
2023-04-30T04:31:03.544Z,96.30
2023-04-30T04:33:30.958Z,96.30
2023-04-30T04:35:58.132Z,96.50
2023-04-30T04:38:25.579Z,96.30
2023-04-30T04:40:53.288Z,96.30
2023-04-30T04:43:20.437Z,96.20
2023-04-30T04:45:52.203Z,96.40
2023-04-30T04:48:19.166Z,96.50
2023-04-30T04:50:46.159Z,96.50
2023-04-30T04:53:14.050Z,96.50
2023-04-30T04:55:40.991Z,96.60
2023-04-30T04:58:07.900Z,96.40
2023-04-30T05:00:34.931Z,96.40
2023-04-30T05:03:01.959Z,96.60
2023-04-30T05:05:28.982Z,96.50
2023-04-30T05:07:56.004Z,96.80
2023-04-30T05:10:22.922Z,96.70
2023-04-30T05:12:49.868Z,96.60
2023-04-30T05:15:16.861Z,96.60
2023-04-30T05:17:43.813Z,96.70
2023-04-30T05:20:11.526Z,96.50
2023-04-30T05:22:38.769Z,96.70
2023-04-30T05:25:06.067Z,96.70
2023-04-30T05:27:33.090Z,96.70
2023-04-30T05:30:00.076Z,96.80
2023-04-30T05:32:27.804Z,96.80
2023-04-30T05:34:54.817Z,96.70
2023-04-30T05:37:22.674Z,96.60
2023-04-30T05:39:49.671Z,96.50
2023-04-30T05:42:16.639Z,96.70
2023-04-30T05:44:43.528Z,96.60
2023-04-30T05:47:10.496Z,96.70
2023-04-30T05:49:37.550Z,96.80
2023-04-30T05:52:04.606Z,96.90
2023-04-30T05:54:31.568Z,96.90
2023-04-30T05:56:58.724Z,96.90
2023-04-30T05:59:26.064Z,97.20
2023-04-30T06:01:53.110Z,97.20
2023-04-30T06:04:20.076Z,97.30
2023-04-30T06:06:47.155Z,97.20
2023-04-30T06:09:14.133Z,97.10
2023-04-30T06:11:42.526Z,97.10
2023-04-30T06:14:10.351Z,97.10
2023-04-30T06:16:38.003Z,97.10
2023-04-30T06:19:04.957Z,97.10
2023-04-30T06:21:31.890Z,97.40
2023-04-30T06:23:58.781Z,97.20
2023-04-30T06:26:25.882Z,97.30
2023-04-30T06:28:52.755Z,97.60
2023-04-30T06:31:19.971Z,97.50
2023-04-30T06:33:47.100Z,97.20
2023-04-30T06:36:14.036Z,97.10
2023-04-30T06:38:41.447Z,97.10
2023-04-30T06:41:08.496Z,97.30
2023-04-30T06:43:35.525Z,97.20
2023-04-30T06:46:02.560Z,96.90
2023-04-30T06:48:29.523Z,97.00
2023-04-30T06:50:56.636Z,96.90
2023-04-30T06:53:23.588Z,97.00
2023-04-30T06:55:50.924Z,97.00
2023-04-30T06:58:18.725Z,97.10
2023-04-30T07:00:45.736Z,96.80
2023-04-30T07:03:13.039Z,96.70
2023-04-30T07:05:40.330Z,96.60
2023-04-30T07:08:07.396Z,96.80
2023-04-30T07:10:34.409Z,96.70
2023-04-30T07:13:01.298Z,96.70
2023-04-30T07:15:28.242Z,96.80
2023-04-30T07:17:55.235Z,96.50
2023-04-30T07:20:22.215Z,96.70
2023-04-30T07:22:49.121Z,96.60
2023-04-30T07:25:16.190Z,96.70
2023-04-30T07:27:43.301Z,96.70
2023-04-30T07:30:10.602Z,96.30
2023-04-30T07:32:38.156Z,96.30
2023-04-30T07:35:05.363Z,96.30
2023-04-30T07:37:34.957Z,96.50
2023-04-30T07:40:03.495Z,96.80
2023-04-30T07:42:30.429Z,96.40
2023-04-30T07:44:57.475Z,96.70
2023-04-30T07:47:25.496Z,96.60
2023-04-30T07:49:52.924Z,96.50
2023-04-30T07:52:20.084Z,96.50
2023-04-30T07:54:47.039Z,96.20
2023-04-30T07:57:13.976Z,96.40
2023-04-30T07:59:41.026Z,96.40
2023-04-30T08:02:08.823Z,96.20
2023-04-30T08:04:35.979Z,96.20
2023-04-30T08:07:04.471Z,95.60
2023-04-30T08:09:31.432Z,95.90
2023-04-30T08:11:58.332Z,96.10
2023-04-30T08:14:25.340Z,96.10
2023-04-30T08:16:52.389Z,95.70
2023-04-30T08:19:19.374Z,96.00
2023-04-30T08:21:46.349Z,96.00
2023-04-30T08:24:13.295Z,96.30
2023-04-30T08:26:40.401Z,96.20
2023-04-30T08:29:08.334Z,96.00
2023-04-30T08:31:35.578Z,96.10
2023-04-30T08:34:02.644Z,96.20
2023-04-30T08:36:29.546Z,95.80
2023-04-30T08:38:57.579Z,95.80
2023-04-30T08:41:26.223Z,96.00
2023-04-30T08:43:53.831Z,95.50
2023-04-30T08:46:21.712Z,95.60
2023-04-30T08:48:48.892Z,95.50
2023-04-30T08:51:15.852Z,95.90
2023-04-30T08:53:44.483Z,95.30
2023-04-30T08:56:11.401Z,95.20
2023-04-30T08:58:38.598Z,95.40
2023-04-30T09:01:07.918Z,95.80
2023-04-30T09:03:35.047Z,95.30
2023-04-30T09:06:02.310Z,95.50
2023-04-30T09:08:48.475Z,95.30
2023-04-30T09:11:25.820Z,95.50
2023-04-30T09:13:53.444Z,95.70
2023-04-30T09:16:21.268Z,95.80
2023-04-30T09:18:48.746Z,95.30
2023-04-30T09:21:15.849Z,94.90
2023-04-30T09:23:59.010Z,95.10
2023-04-30T09:26:44.310Z,94.80
2023-04-30T09:29:11.740Z,95.00
2023-04-30T09:31:39.921Z,94.60
2023-04-30T09:34:06.891Z,94.60
2023-04-30T09:36:34.353Z,94.30
2023-04-30T09:39:17.363Z,94.60
2023-04-30T09:41:44.534Z,94.60
2023-04-30T09:44:26.538Z,94.60
2023-04-30T09:46:53.596Z,94.80
2023-04-30T09:49:21.488Z,95.10
2023-04-30T09:51:55.869Z,94.80
2023-04-30T09:54:29.470Z,94.60
2023-04-30T09:56:58.138Z,94.60
2023-04-30T09:59:32.021Z,94.10
2023-04-30T10:02:00.590Z,94.00
2023-04-30T10:04:29.031Z,93.90
2023-04-30T10:06:57.453Z,94.40
2023-04-30T10:09:26.729Z,94.30
2023-04-30T10:11:54.004Z,94.10
2023-04-30T10:14:21.239Z,94.40
2023-04-30T10:17:05.709Z,94.40
2023-04-30T10:19:34.265Z,94.20
2023-04-30T10:22:01.996Z,93.70
2023-04-30T10:24:29.247Z,93.90
2023-04-30T10:26:57.244Z,94.00
2023-04-30T10:29:24.172Z,94.20
2023-04-30T10:31:52.576Z,93.50
2023-04-30T10:34:42.822Z,93.90
2023-04-30T10:37:20.367Z,93.50
2023-04-30T10:39:47.582Z,93.40
2023-04-30T10:42:14.509Z,93.50
2023-04-30T10:44:41.546Z,93.10
2023-04-30T10:47:08.526Z,93.00
2023-04-30T10:49:35.561Z,92.90
2023-04-30T10:52:03.618Z,92.80
2023-04-30T10:54:35.773Z,92.90
2023-04-30T10:57:17.512Z,93.20
2023-04-30T10:59:51.102Z,92.70
2023-04-30T11:02:18.199Z,92.50
2023-04-30T11:05:03.716Z,92.70
2023-04-30T11:07:30.792Z,92.80
2023-04-30T11:09:57.968Z,92.90
2023-04-30T11:12:28.673Z,93.00
2023-04-30T11:15:22.720Z,92.60
2023-04-30T11:17:50.200Z,92.30
2023-04-30T11:20:21.430Z,92.40
2023-04-30T11:22:48.540Z,92.40
2023-04-30T11:25:22.434Z,92.40
2023-04-30T11:27:50.231Z,92.40
2023-04-30T11:30:18.052Z,92.50
2023-04-30T11:32:47.353Z,92.00
2023-04-30T11:35:17.128Z,92.10
2023-04-30T11:37:44.734Z,91.90
2023-04-30T11:40:12.785Z,91.80
2023-04-30T11:42:41.159Z,91.60
2023-04-30T11:45:12.962Z,91.60
2023-04-30T11:47:40.350Z,91.90
2023-04-30T11:50:08.373Z,92.00
2023-04-30T11:52:35.690Z,92.00
2023-04-30T11:55:05.380Z,91.50
2023-04-30T11:57:40.619Z,91.80
2023-04-30T12:00:11.329Z,91.60
2023-04-30T12:02:39.275Z,91.70
2023-04-30T12:05:12.530Z,91.50
2023-04-30T12:07:39.786Z,91.80
2023-04-30T12:10:07.289Z,91.40
2023-04-30T12:12:36.570Z,91.70
2023-04-30T12:15:13.142Z,91.80
2023-04-30T12:17:40.312Z,91.60
2023-04-30T12:20:10.401Z,91.70
2023-04-30T12:22:37.549Z,91.70
2023-04-30T12:25:22.783Z,91.50
2023-04-30T12:27:50.836Z,91.70
2023-04-30T12:30:21.488Z,91.70
2023-04-30T12:32:50.242Z,92.10
2023-04-30T12:35:21.289Z,91.80
2023-04-30T12:37:50.193Z,91.40
2023-04-30T12:40:17.937Z,92.10
2023-04-30T12:42:46.807Z,91.50
2023-04-30T12:45:14.136Z,91.20
2023-04-30T12:47:41.432Z,91.10
2023-04-30T12:50:09.349Z,91.20
2023-04-30T12:52:36.254Z,91.80
2023-04-30T12:55:19.565Z,91.40
2023-04-30T12:58:06.126Z,90.50
2023-04-30T13:00:45.272Z,90.80
2023-04-30T13:03:13.074Z,90.90
2023-04-30T13:05:46.121Z,90.70
2023-04-30T13:08:13.547Z,91.10
2023-04-30T13:10:40.488Z,91.40
2023-04-30T13:13:07.394Z,91.10
2023-04-30T13:15:34.392Z,90.80
2023-04-30T13:18:01.341Z,90.80
2023-04-30T13:20:28.242Z,90.60
2023-04-30T13:22:55.229Z,90.90
2023-04-30T13:25:22.511Z,90.90
2023-04-30T13:27:49.454Z,90.40
2023-04-30T13:30:16.415Z,90.10
2023-04-30T13:32:43.422Z,90.20
2023-04-30T13:35:11.366Z,90.10
2023-04-30T13:37:38.912Z,90.10
2023-04-30T13:40:07.008Z,90.30
2023-04-30T13:42:34.355Z,90.50
2023-04-30T13:45:01.591Z,90.30
2023-04-30T13:47:28.585Z,90.20
2023-04-30T13:49:55.756Z,89.70
2023-04-30T13:52:22.936Z,90.30
2023-04-30T13:54:49.993Z,90.10
2023-04-30T13:57:16.897Z,90.30
2023-04-30T13:59:43.816Z,90.20
2023-04-30T14:02:11.132Z,90.00
2023-04-30T14:04:43.113Z,90.40
2023-04-30T14:07:15.747Z,90.00
2023-04-30T14:09:42.670Z,90.00
2023-04-30T14:12:09.620Z,90.50
2023-04-30T14:14:38.729Z,90.20
2023-04-30T14:17:06.248Z,90.00
2023-04-30T14:19:33.197Z,90.20
2023-04-30T14:22:00.137Z,90.40
2023-04-30T14:24:27.913Z,89.70
2023-04-30T14:26:54.883Z,90.00
2023-04-30T14:29:21.978Z,89.10
2023-04-30T14:31:49.086Z,90.30
2023-04-30T14:34:16.144Z,90.00
2023-04-30T14:36:43.049Z,90.00
2023-04-30T14:39:09.978Z,89.80
2023-04-30T14:41:37.577Z,90.40
2023-04-30T14:44:04.634Z,90.30
2023-04-30T14:46:31.722Z,90.00
2023-04-30T14:48:58.756Z,90.10
2023-04-30T14:51:25.693Z,89.30
2023-04-30T14:53:52.673Z,90.20
2023-04-30T14:56:19.626Z,90.10
2023-04-30T14:58:46.517Z,90.00
2023-04-30T15:01:13.770Z,90.10
2023-04-30T15:03:41.032Z,89.60
2023-04-30T15:06:08.475Z,90.00
2023-04-30T15:08:35.554Z,90.00
2023-04-30T15:11:03.825Z,90.30
2023-04-30T15:13:30.842Z,90.20
2023-04-30T15:15:58.190Z,90.10
2023-04-30T15:18:25.120Z,90.00
2023-04-30T15:20:52.171Z,89.70
2023-04-30T15:23:19.100Z,89.80
2023-04-30T15:25:46.170Z,89.70
2023-04-30T15:28:13.089Z,90.10
2023-04-30T15:30:40.066Z,90.40
2023-04-30T15:33:07.095Z,89.80
2023-04-30T15:35:34.319Z,89.40
2023-04-30T15:38:01.280Z,89.30
2023-04-30T15:40:28.191Z,89.70
2023-04-30T15:42:55.116Z,90.20
2023-04-30T15:45:24.605Z,89.60
2023-04-30T15:47:51.969Z,89.70
2023-04-30T15:50:19.008Z,89.70
2023-04-30T15:52:46.016Z,90.10
2023-04-30T15:55:13.152Z,88.90
2023-04-30T15:57:40.213Z,89.00
2023-04-30T16:00:07.685Z,89.30
2023-04-30T16:02:35.850Z,88.70
2023-04-30T16:05:03.506Z,89.50
2023-04-30T16:07:31.606Z,90.10
2023-04-30T16:09:59.233Z,89.10
2023-04-30T16:12:26.930Z,89.30
2023-04-30T16:14:54.261Z,89.80
2023-04-30T16:17:21.479Z,89.50
2023-04-30T16:19:48.556Z,88.70
2023-04-30T16:22:17.247Z,88.50
2023-04-30T16:24:44.515Z,88.70
2023-04-30T16:27:11.714Z,88.20
2023-04-30T16:29:38.839Z,88.20
2023-04-30T16:32:06.199Z,88.90
2023-04-30T16:34:33.359Z,88.40
2023-04-30T16:37:00.616Z,88.40
2023-04-30T16:39:27.772Z,88.40
2023-04-30T16:41:55.220Z,88.30
2023-04-30T16:44:22.563Z,89.10
2023-04-30T16:46:49.681Z,88.80
2023-04-30T16:49:16.737Z,88.00
2023-04-30T16:51:43.733Z,88.90
2023-04-30T16:54:10.800Z,89.00
2023-04-30T16:56:37.702Z,88.70
2023-04-30T16:59:04.659Z,88.30
2023-04-30T17:01:32.290Z,88.40
2023-04-30T17:03:59.399Z,88.70
2023-04-30T17:06:26.616Z,88.30
2023-04-30T17:08:54.232Z,88.40
2023-04-30T17:11:22.322Z,88.30
2023-04-30T17:13:50.894Z,88.20
2023-04-30T17:16:18.097Z,87.50
2023-04-30T17:18:45.230Z,88.40
2023-04-30T17:21:12.568Z,88.10
2023-04-30T17:23:40.427Z,87.80
2023-04-30T17:26:07.546Z,88.30
2023-04-30T17:28:34.621Z,88.10
2023-04-30T17:31:07.169Z,88.10
2023-04-30T17:33:34.304Z,88.00
2023-04-30T17:36:01.407Z,88.30
2023-04-30T17:38:31.392Z,88.10
2023-04-30T17:40:58.430Z,88.80
2023-04-30T17:43:25.818Z,88.30
2023-04-30T17:45:53.613Z,88.10
2023-04-30T17:48:21.018Z,88.20
2023-04-30T17:50:48.026Z,88.60
2023-04-30T17:53:15.069Z,88.20
2023-04-30T17:55:42.180Z,89.10
2023-04-30T17:58:11.447Z,88.80
2023-04-30T18:00:39.461Z,88.90
2023-04-30T18:03:06.887Z,88.80
2023-04-30T18:05:35.756Z,88.90
2023-04-30T18:08:22.621Z,88.90
2023-04-30T18:10:49.758Z,88.90
2023-04-30T18:13:16.856Z,88.70
2023-04-30T18:15:43.916Z,88.20
2023-04-30T18:18:11.031Z,88.10
2023-04-30T18:20:38.152Z,88.40
2023-04-30T18:23:06.708Z,88.40
2023-04-30T18:25:37.292Z,87.60
2023-04-30T18:28:04.570Z,88.40
2023-04-30T18:30:31.611Z,88.50
2023-04-30T18:32:58.899Z,88.70
2023-04-30T18:35:28.546Z,88.30
2023-04-30T18:37:55.856Z,87.70
2023-04-30T18:40:23.360Z,88.20
2023-04-30T18:42:50.477Z,88.60
2023-04-30T18:45:18.267Z,88.50
2023-04-30T18:47:45.712Z,88.10
2023-04-30T18:53:27.403Z,87.60
2023-04-30T18:55:56.313Z,88.90
2023-04-30T18:58:30.606Z,89.10
2023-04-30T19:00:58.176Z,88.00
2023-04-30T19:03:29.077Z,88.40
2023-04-30T19:05:59.449Z,87.50
2023-04-30T19:08:26.690Z,87.90
2023-04-30T19:10:54.560Z,87.90
2023-04-30T19:13:27.476Z,88.20
2023-04-30T19:15:54.628Z,87.90
2023-04-30T19:18:21.947Z,88.10
2023-04-30T19:21:00.094Z,87.60
2023-04-30T19:23:28.141Z,87.70
2023-04-30T19:25:55.505Z,88.30
2023-04-30T19:28:23.019Z,87.60
2023-04-30T19:30:54.666Z,87.50
2023-04-30T19:33:22.749Z,87.30
2023-04-30T19:35:57.617Z,87.00
2023-04-30T19:38:24.763Z,87.40
2023-04-30T19:40:53.248Z,86.60
2023-04-30T19:43:21.121Z,87.80
2023-04-30T19:45:52.773Z,87.80
2023-04-30T19:48:21.206Z,87.40
2023-04-30T19:50:49.126Z,86.20
2023-04-30T19:53:20.434Z,87.00
2023-04-30T19:55:47.698Z,86.70
2023-04-30T19:58:14.952Z,87.20
2023-04-30T20:00:43.659Z,86.80
2023-04-30T20:03:11.891Z,86.50
2023-04-30T20:05:42.801Z,87.00
2023-04-30T20:08:10.038Z,87.40
2023-04-30T20:10:38.103Z,87.30
2023-04-30T20:13:05.809Z,87.40
2023-04-30T20:15:33.262Z,86.70
2023-04-30T20:18:03.632Z,86.70
2023-04-30T20:20:30.926Z,87.40
2023-04-30T20:22:57.964Z,86.80
2023-04-30T20:25:31.136Z,87.10
2023-04-30T20:27:58.139Z,87.20
2023-04-30T20:30:25.581Z,86.80
2023-04-30T20:32:52.714Z,86.40
2023-04-30T20:35:20.326Z,86.20
2023-04-30T20:37:49.762Z,86.50
2023-04-30T20:40:16.920Z,86.20
2023-04-30T20:42:44.534Z,86.60
2023-04-30T20:45:11.671Z,86.50
2023-04-30T20:47:39.639Z,85.90
2023-04-30T20:50:07.697Z,85.20
2023-04-30T20:52:34.980Z,85.80
2023-04-30T20:55:02.078Z,85.60
2023-04-30T20:57:29.507Z,85.50
2023-04-30T20:59:57.001Z,85.70
2023-04-30T21:02:24.468Z,85.70
2023-04-30T21:04:51.511Z,86.10
2023-04-30T21:07:18.564Z,86.30
2023-04-30T21:09:45.628Z,85.60
2023-04-30T21:12:13.041Z,86.10
2023-04-30T21:14:40.060Z,85.80
2023-04-30T21:17:07.722Z,85.50
2023-04-30T21:19:34.995Z,85.80
2023-04-30T21:22:01.971Z,85.80
2023-04-30T21:24:31.813Z,86.60
2023-04-30T21:27:00.146Z,85.50
2023-04-30T21:29:27.308Z,85.40
2023-04-30T21:31:56.121Z,86.00
2023-04-30T21:34:23.221Z,85.80
2023-04-30T21:36:51.136Z,86.00
2023-04-30T21:39:18.233Z,84.50
2023-04-30T21:41:45.260Z,85.10
2023-04-30T21:44:12.476Z,85.80
2023-04-30T21:46:39.741Z,86.60
2023-04-30T21:49:07.088Z,85.90
2023-04-30T21:51:36.394Z,85.50
2023-04-30T21:54:03.394Z,86.00
2023-04-30T21:56:30.460Z,85.70
2023-04-30T21:58:57.479Z,85.60
2023-04-30T22:01:27.821Z,85.50
2023-04-30T22:03:54.938Z,85.70
2023-04-30T22:06:22.069Z,85.40
2023-04-30T22:08:49.135Z,84.50
2023-04-30T22:11:16.303Z,86.00
2023-04-30T22:13:43.454Z,85.70
2023-04-30T22:16:11.124Z,85.30
2023-04-30T22:18:38.310Z,85.00
2023-04-30T22:21:05.494Z,85.20
2023-04-30T22:23:32.529Z,85.30
2023-04-30T22:26:00.140Z,85.70
2023-04-30T22:28:27.478Z,85.50
2023-04-30T22:30:58.917Z,85.70
2023-04-30T22:33:25.928Z,85.60
2023-04-30T22:35:53.098Z,84.60
2023-04-30T22:38:21.421Z,85.10
2023-04-30T22:40:48.425Z,85.70
2023-04-30T22:43:16.344Z,85.90
2023-04-30T22:45:43.533Z,86.00
2023-04-30T22:48:10.914Z,85.90
2023-04-30T22:50:38.144Z,86.30
2023-04-30T22:53:05.238Z,86.20
2023-04-30T22:55:33.014Z,85.60
2023-04-30T22:58:01.643Z,86.20
